Wieliszewski Crossing Jesień - kolarstwo MTB 19,2 km

Wieliszew, 14-10-2018


Zawodnicy na mecie: 217, kobiety: 43, mężczyźni: 174

Wybierz kategorię:     Pobierz wyniki OPEN w formacie PDF


Klasyfikacja drużynowa kliknij tutaj




M-ceM. kat.NrKategoriaNazwisko Imię Miejscowość Klub Wynik V-śr Punkty Klucz
174645K21-30Orłowska Dorota Chotomów BIKE FUN LEGIONOWO 01:01:24 19.54 km/h160.37RJ8362
1358758M16-20Aleksandrowicz Jakub Łomianki ŁOMIANKOWSKA GRUPA BIEGO 01:01:26 19.53 km/h136.73RW8263
13643653M41-50Kłos Rafał Jabłonna - 01:01:27 19.52 km/h136.7RZ8178
13757666M31-40Gągalski Łukasz Legionowo BIKE FUN LEGIONOWO 01:01:35 19.49 km/h136.4RZ8199
1389767M16-20Matyszczak Damian Warszawa KENKO 01:01:37 19.47 km/h136.33RJ8418
13958945M31-40Sobota Krzysztof Jabłonna BRAVEHEARTS LEGIONOWO 01:02:09 19.31 km/h135.16RJ8402
188716K31-40Pszczoła Anna Warszawa UNIQ 01:02:11 19.29 km/h158.35RJ8384
14059954M31-40Kornacki Dominik Kobyłka AMP UKS VICTORIA RADZYMIN 01:02:20 19.25 km/h134.76RL8320
1415639M61plusGaleński Janusz Warszawa - 01:02:27 19.22 km/h134.51RZ8138
14260753M31-40Karbowski Grzegorz . JW3934 01:02:29 19.2 km/h134.44RZ8074
14317704M21-30Płucienniczak Hubert Wójtostwo - 01:02:39 19.15 km/h134.08RJ8380
14410925M51-60Matuszewski Dariusz Łomianki ŁOMIANKOWSKA GRUPA BIEGO 01:02:42 19.14 km/h133.97RW8271
14561635M31-40Rosiński Łukasz Łasjki - 01:03:10 18.99 km/h132.98RW8238
195919K41-50Kalukiewicz Amelia Słupno - 01:03:13 18.98 km/h155.76RZ8048
14644967M41-50Sołdan Maciej Skrzeszew GIGA SPORT 01:03:14 18.98 km/h132.84RJ8409
14718773M21-30Zegler Grzegorz Legionowo 01:03:23 18.93 km/h132.53RZ8210
14862934M31-40Borkowski Jacek Warszawa - 01:03:25 18.92 km/h132.46RZ8050
14963684M31-40Czwakiel Michał Jabłonna M C M 01:04:25 18.63 km/h130.4RZ8176
15064927M31-40Kosewski Krzysztof Łajski BRAVEHEARTS LEGIONOWO 01:04:34 18.59 km/h130.1RZ8115
15145961M41-50Rosiak Jacek Radzymin IRUN CADENCE 01:04:36 18.57 km/h130.03RL8338
15246678M41-50Czyż Tomasz Żabiczyn NASIELSK BASZTA TEAM 01:04:52 18.49 km/h129.5RJ8371
15365747M31-40Marek Marcin . JW3934 01:05:41 18.27 km/h127.89RZ8207
15447625M41-50Myczkowski Paweł Serock BIKE FUN LEGIONOWO 01:06:22 18.08 km/h126.57RZ8168
209900K31-40Wasilewska Joanna Dziekanów Polski ŁOMIANKOWSKA GRUPA BIEGO 01:06:37 18.01 km/h147.81RZ8006
15548608M41-50Kuflikowski Sebastian Chotomów BIKE FUN LEGIONOWO 01:06:38 18.01 km/h126.06RW8235
15649939M41-50Zieliński Karol Warszawa - 01:06:41 17.99 km/h125.97RJ8398
15750650M41-50Kołaciński Marcin Warszawa - 01:06:55 17.93 km/h125.53RW8227
15851626M41-50Mucha Robert Kroczewo 54 BESTIE OCR LEGIONOWO 01:06:59 17.91 km/h125.4RJ8361
15966607M31-40Nosowski Konrad Nowy Dwór Mazowie BESTIE OCR LEGIONOWO 01:07:06 17.88 km/h125.19RL8347
16010771M16-20Łopatowski Krzysztof Legionowo 01:07:08 17.87 km/h125.12RJ8421
2110965K31-40Truszkowska Marta Warszawa - 01:07:09 17.87 km/h146.64RJ8408
226685K41-50Jankowska Monika Olszewnica Stara BIKE FUN LEGIONOWO 01:07:09 17.87 km/h146.64RW8230
2311614K31-40Gajc Magdalena Legionowo BIKE FUN LEGIONOWO 01:07:09 17.87 km/h146.64RZ8102
16111770M16-20Łopatowski Radosław Legionowo 01:07:10 17.86 km/h125.06RJ8420
16267768M31-40Chrubak Rafał Legionowo 01:07:10 17.86 km/h125.06RJ8419
2412663K31-40Tabor Dorota Dębe AMP UKS VICTORIA RADZYMIN 01:07:22 17.81 km/h146.17RZ8159
16368698M31-40Ciepiela Przemysław Chotomów - 01:07:32 17.77 km/h124.38RJ8378
2513970K31-40Kosewska Monika Wieliszew WIELISZEW HERON TEAM 01:08:38 17.48 km/h143.47RJ8411
265689K21-30Barmuta Aleksandra Warszawa AMATORSZCZYZNA TEAM 01:08:52 17.42 km/h142.98RZ8185
16411949M51-60Bujnicki Kazimierz Wołomin MORSY ZIELONKA 01:09:29 17.27 km/h120.89RZ8055
2714933K31-40Wasik Julita Stanisławów Drug GRUPA BIEGOWA CHTMO 01:09:43 17.21 km/h141.24RJ8395
16552697M41-50Stawiarski Krzysztof Kępa Polska SOKÓŁ BODZANÓW 01:10:36 17 km/h118.98RJ8377
16669769M31-40Kostecki Maciej 01:11:15 16.84 km/h117.89RL8350
286977K21-30Filipczak Jagoda Nowy Dwór Mazowie PUKS MŁODE ORŁY 01:11:47 16.71 km/h137.17RJ8431
16770903M31-40Wasilewski Adam Dziekanów Polski ŁOMIANKOWSKA GRUPA BIEGO 01:12:03 16.65 km/h116.59RZ8008
16812759M16-20Dżega N Dawid Janówek SPARTAN SGX WARSAW 01:12:25 16.57 km/h116RW8264
297731K41-50Korajczyk Jolanta . WIELISZEW HERON TEAM 01:12:47 16.48 km/h135.29RZ8195
16971750M31-40Piotrowski Kamil . JW3934 01:13:03 16.43 km/h114.99RZ8211
17053677M41-50Milczarek Radosław Warszawa - 01:13:24 16.35 km/h114.44RZ8142
308931K41-50Jaworek Justyna Trzciany - 01:13:25 16.34 km/h134.12RZ8063
1   2   3   4   5   

Obsługiwane typy zawodów

  • kolarstwo szosowe
  • kolarstwo górskie
  • biegi, maratony
  • rolkarstwo
  • narciarstwo, snowboard
  • i wiele innych

Czym jest nasza firma?

Charakteru firmy nie określa jej nazwa, statut czy akty prawne. Okreś­lają go potrzeby klienta, które zostają zaspokojone, kiedy kupuje on jakiś produkt lub usługę. Zadowolenie klienta stanowi mi­sję i cel naszej firmy. Odpowiedź na pytanie, czym jest nasza firma, można więc uzyskać, jedynie patrząc na nią z zewnątrz, z pun­ktu widzenia klienta i rynku.

Znajdź nas na

  • Facebook: Czasomierzyk
  • Google: 102048948199715833978
  • YouTube: Czasomierzyk
Chcesz dostawać informacje o nowościach?
Zapisz się do naszego newslettera